KNMI Weerbulletins

Hier vind u de KMNI verwachtingen en de waarnemingen

Bron: KNMI website
Laatste update op 18-08-2017 om 16:38
ZCZC
FBNL50 EHDB 181422
WEERBULLETIN VOOR DE LUCHTVAART
.
GELDIG 181500/182100 UTC
.
SITUATIE: AAN DE ZUIDOOSTFLANK VAN EEN OMVANGRIJK LAGEDRUKGEBIED TEN
NOORDEN VAN SCHOTLAND VOERT EEN ZUIDWESTELIJKE STROMING MARITIEM
POLAIRE LUCHT AAN DIE ONSTABIEL IS TOT BOVEN FL100. EEN N-O
GEORIENTEERDE TROG BEREIKT ROND 18 UTC DE WESTKUST, TREKT
NOORDOOSTWAARTS EN LIGT AAN HET EINDE VAN DE PERIODE BOVEN HET
MIDDEN.
.
SIGNIFICANT WEER: BIJ DE TROG GECLUSTERDE MATIGE REGENBUIEN MET
ONWEER. ELDERS ZEER LOKAAL EEN ENKELE GEISOLEERDE LICHTE, MOGELIJK
MATIGE REGENBUI. LANGS DE ZUIDWEST- EN AAN HET EINDE VAN DE PERIODE
OOK LANGS DE GEHELE WESTKUST LOKAAL MATIGE TURBULENTIE.
.
WIND: ZUIDWESTELIJK 7-10 KN, IN DE KUSTGEBIEDEN 10-15 KN. AAN ZEE EN
BOVEN HET IJSSELMEER 15-20 KN, LANGS DE ZUIDWEST- EN LOKAAL LANGS DE
WESTKUST 20-25 KN. VANAF HALVERWEGE DE PERIODE LANDINWAARTS ENKELE KN
AFNEMEND. BIJ DE BUIEN BIJ DE TROG LOKAAL UITSCHIETERS ROND 40 KN,
ELDERS IN EEN BUI LOKAAL TOT 25 KN.
.
BEWOLKING: SCT, BIJ DE TROG BKN CU/SC 2000-3000 VT, TOPPEN 5000 VT.
IN HET OOSTEN AANVANKELIJK OOK BKN AC/SC 4000-6000 VT. TOPPEN ROND
FL100. BIJ EEN BUI FEW, BIJ DE TROG SCT/BKN CB ROND 2000 VT. TOPPEN
BOVEN FL100.
.
ZICHT: MEER DAN 10 KM. IN NEERSLAG 5-8 KM, BIJ DE TROG LOKAAL 3-5 KM
EN ZEER LOKAAL 1500-3000 M.
.
NULGRADEN NIVEAU: FL085-FL095, GEDURENDE DE PERIODE DALEND NAAR FL070
IN HET WESTEN TOT FL080 IN HET OOSTEN.
.
HOOGTEWINDEN EN TEMPERATUREN:
       15 UTC:       21 UTC:
0500VT 240/10-15 +17 250/15-20 +16
1500VT 250/15-20 +14 250/25-30 +14
3000VT 260/20-25 +12 250/30-35 +09
FL 050 260/25-30 +08 250/25-30 +05
FL 100 230/30-35 -00 240/35-40 -05
HOOGSTE WINDSNELHEDEN IN HET WESTEN EN BIJ DE TROG.
.
THERMIEK: BUITEN NEERSLAG ZWAK TOT MATIG. EINDE THERMIEK 18:15 UTC.
.
VOORUITZICHTEN VOOR MORGEN: AAN DE ZUIDFLANK VAN EEN LAGEDRUKGEBIED
TEN WESTEN VAN ZUID-NOORWEGEN VOERT EEN WEST- TOT ZUIDWESTELIJKE
STROMING MARITIEM POLAIRE LUCHT AAN. DE AANGEVOERDE LUCHT WORDT IN DE
OCHTEND ONSTABIEL TOT 6000 VT, LOKAAL BOVEN FL100. EEN N-Z
GEORIENTEERDE OCCLUSIE LIGT BOVEN HET WESTEN, TREKT OOSTWAARTS EN
VERLAAT HALVERWEGE DE MIDDAG HET OOSTEN. BIJ DE OCCLUSIE REGEN EN
INGEBEDDE MATIGE REGENBUIEN. TEN WESTEN VAN DE OCCLUSIE GEISOLEERDE
LICHTE TOT MATIGE REGENBUIEN. MET NAME IN DE OCHTEND LANGS DE KUST EN
BOVEN HET IJSSELMEER MATIGE TURBULENTIE.
.
DAGLICHTPERIODE: 04.14 TOT 19.12 UTC.=
NNNN
Bron: KNMI website
Laatste update op 18-08-2017 om 16:38
ZCZC
FT181100 EHAM     AMSTERDAM/SCHIPHOL   NLD   -3 m.
TAF EHAM 181110Z 1812/1918 23014KT 9999 SCT025
    PROB30 TEMPO 1812/1814 24015G25KT 6000 -SHRA SCT020CB
    TEMPO 1818/1821 24018G28KT 6000 -SHRA SCT020CB
    PROB30 TEMPO 1818/1821 24026G38KT 4000 SHRA TSRA SCT018CB
    BKN030
    TEMPO 1902/1909 24015G25KT 5000 SHRA SCT020CB
    BECMG 1906/1909 25015G25KT
    PROB30 TEMPO 1909/1918 6000 -SHRA SCT020CB=
ZCZC
FT181100 EHBK     MAASTRICHT/MAASTRICHT-AACHEN   NLD   114 m.
TAF EHBK 181103Z 1812/1918 20007KT 9999 SCT025
    PROB30 TEMPO 1812/1814 6000 -RADZ BKN009
    BECMG 1813/1814 24010KT
    PROB30 TEMPO 1813/1818 25015G25KT 6000 SHRA SCT025CB
    PROB40 TEMPO 1912/1917 25015G25KT 6000 SHRA SCT025CB=
ZCZC
FT181100 EHGG     GRONINGEN/EELDE   NLD   5 m.
TAF COR EHGG 181111Z 1812/1918 21012KT 9999 SCT025
    TEMPO 1813/1822 25015G25KT 6000 SHRA SCT022CB
    PROB30 TEMPO 1820/1822 26022G35KT 4000 TSRA SCT018CB
    BKN022
    TEMPO 1906/1918 26015G25KT 6000 SHRA SCT025CB
    BECMG 1908/1911 24014KT=
ZCZC
FT181100 EHRD     ROTTERDAM/THE HAGUE AIRPORT   NLD   -5 m.
TAF EHRD 181114Z 1812/1918 23013KT 9999 SCT025
    PROB30 TEMPO 1812/1814 24015G25KT 6000 -SHRA SCT020CB
    TEMPO 1818/1821 24017G27KT 6000 -SHRA SCT020CB
    PROB30 TEMPO 1818/1821 24022G34KT 4000 SHRA TSRA SCT018CB
    BKN030
    TEMPO 1902/1909 24015G25KT 5000 SHRA SCT020CB
    BECMG 1906/1909 25015G25KT
    PROB30 TEMPO 1909/1918 6000 -SHRA SCT020CB=
ZCZC
FT181100 EHEH     EINDHOVEN/EINDHOVEN   NLD   22 m.
TAF EHEH 181112Z 1812/1918 22010KT SCT018 SCT040 BKN250
    PROB40 TEMPO 1812/1813 4000 RA SHRA SCT007 BKN012 SCT020CB
    PROB30 TEMPO 1818/1900 SCT020CB
    BECMG 1906/1908 23014KT SCT014
    BECMG 1908/1910 SCT020
    PROB40 TEMPO 1908/1918 25015G25KT 4500 SHRA FEW012 SCT015CB
    BKN030=
ZCZC
FC181200 EHWO     WOENSDRECHT/WOENSDRECHT   NLD   19 m.
TAF EHWO 181200Z NIL=
ZCZC
FC181200 EHVK     VOLKEL/VOLKEL   NLD   21 m.
TAF EHVK 181200Z NIL=
ZCZC
FC181200 EHLW CCB LEEUWARDEN/LEEUWARDEN   NLD   1 m.
TAF COR EHLW 181303Z 1813/1901 23012G22KT 9999 SCT018 SCT040
    TEMPO 1818/1822 25015G25KT 4500 SHRA SCT018CB BKN030
    PROB40 TEMPO 1818/1822 27020G35KT 2500 TSRA SCT012 SCT015CB
    PROB30 TEMPO 1822/1901 5000 -SHRA SCT020CB=
ZCZC
FC181200 EHGR     GILZE-RIJEN/GILZE-RIJEN   NLD   14 m.
TAF EHGR 181200Z NIL=
ZCZC
FC181300 EHKD     DE KOOY/DE KOOY   NLD   1 m.
TAF COR EHKD 181301Z 1813/1901 24019G29KT 9999 SCT018 SCT040
    TEMPO 1817/1821 25025G35KT 4500 SHRA SCT018CB BKN030
    PROB40 TEMPO 1817/1821 27030G40KT 2500 TSRA SCT012 SCT015CB
    PROB30 TEMPO 1821/1901 5000 -SHRA SCT020CB
    BECMG 1823/1901 25028KT=
Bron: KNMI website
Laatste update op 18-08-2017 om 16:38
ZCZC
SA181355 EHFS     VLISSINGEN AWS   NLD   8 m.
METAR EHFS 181355Z AUTO 26018KT 9999 FEW038/// 20/15 Q1010=
ZCZC
SA181425 EHKD     DE KOOY/DE KOOY   NLD   1 m.
METAR EHKD 181425Z AUTO 24016KT 9999 FEW020 SCT024 19/14 Q1009
WHT 24015KT 9999 SCT017=
ZCZC
SA181425 EHFD     F3-FB-1   NLD   50 m.
METAR EHFD 181425Z AUTO 25020KT 9999 FEW015/// SCT019/// 17/13 Q1006=
ZCZC
SA181425 EHAM     AMSTERDAM/SCHIPHOL   NLD   -3 m.
METAR EHAM 181425Z 24017KT 9999 FEW026 20/13 Q1009 NOSIG=
ZCZC
SA181425 EHVL     VLIELAND   NLD   10 m.
METAR EHVL 181425Z AUTO 25018KT 9999 SCT015 BKN019 BKN023 19/15 Q1008
 WHT=
ZCZC
SA181425 EHJR     K13-A   NLD   37 m.
METAR EHJR 181425Z NIL=
ZCZC
SA181425 EHLW     LEEUWARDEN/LEEUWARDEN   NLD   1 m.
METAR EHLW 181425Z AUTO 24015KT 200V270 9999 SCT017 SCT022 OVC230
19/15 Q1008 WHT=
ZCZC
SA181425 EHDL     ARNHEM/DEELEN   NLD   48 m.
METAR EHDL 181425Z AUTO 23008KT 170V270 9999 FEW015 SCT019 BKN095
18/16 Q1010 WHT=
ZCZC
SA181425 EHGG     GRONINGEN/EELDE   NLD   5 m.
METAR EHGG 181425Z AUTO 22009KT 180V260 9999 SCT020 SCT024 19/16
Q1009 NOSIG=
ZCZC
SA181425 EHSC     LICHTEILAND GOEREE   NLD   22 m.
METAR EHSC 181425Z NIL=
ZCZC
SA181425 EHSA     EURO PLATFORM   NLD   19 m.
METAR EHSA 181425Z NIL=
ZCZC
SA181425 EHWO     WOENSDRECHT/WOENSDRECHT   NLD   19 m.
METAR EHWO 181425Z AUTO 24011KT 190V270 9999 FEW026 SCT029 BKN042
21/15 Q1011 BLU=
ZCZC
SA181425 EHRD     ROTTERDAM/THE HAGUE AIRPORT   NLD   -5 m.
METAR EHRD 181425Z AUTO 25011KT 220V280 9999 FEW025 SCT033 BKN042
20/15 Q1010 NOSIG=
ZCZC
SA181425 EHGR     GILZE-RIJEN/GILZE-RIJEN   NLD   14 m.
METAR EHGR 181425Z AUTO 25008KT 220V290 9999 FEW025 SCT045 OVC230
20/14 Q1011 BLU=
ZCZC
SA181425 EHEH     EINDHOVEN/EINDHOVEN   NLD   22 m.
METAR EHEH 181425Z AUTO 21008KT 170V240 9999 OVC210 20/17 Q1011
BLU 21008KT 9999 FEW025 SCT030 BKN090 TEMPO FEW010 SCT015CB SCT030
BKN090=
ZCZC
SA181425 EHVK     VOLKEL/VOLKEL   NLD   21 m.
METAR EHVK 181425Z AUTO 25007KT 220V280 9999 OVC087 19/15 Q1011
BLU 26007KT 9999 FEW020 BKN080=
ZCZC
SA181425 EHBK     MAASTRICHT/MAASTRICHT-AACHEN   NLD   114 m.
METAR EHBK 181425Z AUTO 22012KT 9999 FEW021 OVC027 18/15 Q1012 TEMPO
6000 SHRA SCT025CB=
ZCZC
SA181425 EHFZ     F16-A   NLD   43 m.
METAR EHFZ 181425Z AUTO 25014KT 9999 FEW019 SCT025 17/11 Q1007=
ZCZC
SA181425 EHKV     K14-FA-1C   NLD   41 m.
METAR EHKV 181425Z AUTO 28018KT 210V340 9999 FEW019 17/10 Q1009=
ZCZC
SA181425 EHMG     L9-FF-1   NLD   44 m.
METAR EHMG 181425Z AUTO 24018KT 9999 FEW013 18/14 Q1008=
ZCZC
SA181425 EHMA     AWG-1   NLD   40 m.
METAR EHMA 181425Z AUTO 25015KT 9999 FEW014 SCT024 BKN038 19/15
Q1008=
ZCZC
SA181425 EHDV     D15-FA-1   NLD   42 m.
METAR EHDV 181425Z AUTO 25016KT 210V280 //// // FEW027/// 17/10 Q1007
RE//=
ZCZC
SA181425 EHAK     A12-CPP   NLD   48 m.
METAR EHAK 181425Z AUTO 24015KT 9999 FEW019/// 16/11 Q1005=
ZCZC
SA181425 EHQE     HOORN-A   NLD   50 m.
METAR EHQE 181425Z AUTO ///23KT 9999 FEW019 18/14 Q1008=
ZCZC
SA181425 EHJA     J6-A   NLD   45 m.
METAR EHJA 181425Z AUTO 24016KT 9999 FEW024/// 17/11 Q1007=
ZCZC
SA181425 EHPG     P11-B   NLD   41 m.
METAR EHPG 181425Z AUTO 22023KT 9999 FEW021 18/13 Q1009=
ZCZC
SA181425 EHHW     BUITENGAATS/BG-OHVS2      42 m.
METAR EHHW 181425Z AUTO 26010KT 220V310 9999 ///////// 17/14 Q1008=